sensor_id;sensor_type;location;lat;lon;timestamp;pressure;altitude;pressure_sealevel;temperature
70668;BMP280;58242;51.250;-1.118;2024-03-23T00:53:33;100217.50;;;11.12
70668;BMP280;58242;51.250;-1.118;2024-03-23T00:55:59;100225.09;;;11.10
70668;BMP280;58242;51.250;-1.118;2024-03-23T00:58:25;100223.84;;;11.08
70668;BMP280;58242;51.250;-1.118;2024-03-23T01:00:50;100217.56;;;11.04
70668;BMP280;58242;51.250;-1.118;2024-03-23T01:03:15;100221.34;;;11.03
70668;BMP280;58242;51.250;-1.118;2024-03-23T01:05:41;100218.19;;;11.01
70668;BMP280;58242;51.250;-1.118;2024-03-23T01:08:06;100211.63;;;10.98
70668;BMP280;58242;51.250;-1.118;2024-03-23T01:10:32;100210.03;;;10.97
70668;BMP280;58242;51.250;-1.118;2024-03-23T01:12:57;100209.13;;;10.93
70668;BMP280;58242;51.250;-1.118;2024-03-23T01:15:22;100212.91;;;10.93
70668;BMP280;58242;51.250;-1.118;2024-03-23T01:17:48;100214.31;;;10.90
70668;BMP280;58242;51.250;-1.118;2024-03-23T01:20:13;100213.88;;;10.88
70668;BMP280;58242;51.250;-1.118;2024-03-23T01:22:38;100217.97;;;10.86
70668;BMP280;58242;51.250;-1.118;2024-03-23T01:25:04;100209.47;;;10.84
70668;BMP280;58242;51.250;-1.118;2024-03-23T01:27:29;100212.03;;;10.80
70668;BMP280;58242;51.250;-1.118;2024-03-23T01:29:54;100215.34;;;10.77
70668;BMP280;58242;51.250;-1.118;2024-03-23T01:32:20;100207.16;;;10.74
70668;BMP280;58242;51.250;-1.118;2024-03-23T01:34:45;100204.03;;;10.72
70668;BMP280;58242;51.250;-1.118;2024-03-23T01:37:10;100214.28;;;10.70
70668;BMP280;58242;51.250;-1.118;2024-03-23T01:39:36;100203.09;;;10.68
70668;BMP280;58242;51.250;-1.118;2024-03-23T01:42:01;100202.66;;;10.66
70668;BMP280;58242;51.250;-1.118;2024-03-23T01:44:26;100193.06;;;10.65
70668;BMP280;58242;51.250;-1.118;2024-03-23T01:46:52;100192.56;;;10.63
70668;BMP280;58242;51.250;-1.118;2024-03-23T01:49:17;100190.25;;;10.62
70668;BMP280;58242;51.250;-1.118;2024-03-23T01:51:44;100184.09;;;10.61
70668;BMP280;58242;51.250;-1.118;2024-03-23T01:54:10;100180.66;;;10.61
70668;BMP280;58242;51.250;-1.118;2024-03-23T01:56:35;100188.97;;;10.59
70668;BMP280;58242;51.250;-1.118;2024-03-23T01:59:04;100187.41;;;10.59
70668;BMP280;58242;51.250;-1.118;2024-03-23T02:01:30;100186.94;;;10.57
70668;BMP280;58242;51.250;-1.118;2024-03-23T02:03:57;100187.28;;;10.55
70668;BMP280;58242;51.250;-1.118;2024-03-23T02:06:24;100194.81;;;10.53
70668;BMP280;58242;51.250;-1.118;2024-03-23T02:08:49;100196.25;;;10.51
70668;BMP280;58242;51.250;-1.118;2024-03-23T02:11:14;100194.69;;;10.50
70668;BMP280;58242;51.250;-1.118;2024-03-23T02:13:40;100194.19;;;10.48
70668;BMP280;58242;51.250;-1.118;2024-03-23T02:16:05;100198.00;;;10.47
70668;BMP280;58242;51.250;-1.118;2024-03-23T02:18:31;100191.06;;;10.46
70668;BMP280;58242;51.250;-1.118;2024-03-23T02:20:57;100196.72;;;10.44
70668;BMP280;58242;51.250;-1.118;2024-03-23T02:23:22;100190.13;;;10.42
70668;BMP280;58242;51.250;-1.118;2024-03-23T02:25:49;100188.25;;;10.43
70668;BMP280;58242;51.250;-1.118;2024-03-23T02:28:14;100185.88;;;10.41
70668;BMP280;58242;51.250;-1.118;2024-03-23T02:30:40;100180.88;;;10.40
70668;BMP280;58242;51.250;-1.118;2024-03-23T02:33:05;100173.16;;;10.38
70668;BMP280;58242;51.250;-1.118;2024-03-23T02:35:30;100178.81;;;10.37
70668;BMP280;58242;51.250;-1.118;2024-03-23T02:37:56;100179.16;;;10.35
70668;BMP280;58242;51.250;-1.118;2024-03-23T02:40:23;100173.34;;;10.33
70668;BMP280;58242;51.250;-1.118;2024-03-23T02:42:48;100179.81;;;10.32
70668;BMP280;58242;51.250;-1.118;2024-03-23T02:45:13;100178.22;;;10.31
70668;BMP280;58242;51.250;-1.118;2024-03-23T02:47:39;100176.97;;;10.29
70668;BMP280;58242;51.250;-1.118;2024-03-23T02:50:05;100182.63;;;10.27
70668;BMP280;58242;51.250;-1.118;2024-03-23T02:52:30;100181.41;;;10.25
70668;BMP280;58242;51.250;-1.118;2024-03-23T02:54:56;100182.00;;;10.22
70668;BMP280;58242;51.250;-1.118;2024-03-23T02:57:21;100181.88;;;10.19
70668;BMP280;58242;51.250;-1.118;2024-03-23T02:59:47;100180.63;;;10.16
70668;BMP280;58242;51.250;-1.118;2024-03-23T03:02:13;100177.81;;;10.13
70668;BMP280;58242;51.250;-1.118;2024-03-23T03:04:39;100176.09;;;10.08
70668;BMP280;58242;51.250;-1.118;2024-03-23T03:07:04;100171.03;;;10.07
70668;BMP280;58242;51.250;-1.118;2024-03-23T03:09:29;100173.25;;;10.05
70668;BMP280;58242;51.250;-1.118;2024-03-23T03:11:55;100176.25;;;10.04
70668;BMP280;58242;51.250;-1.118;2024-03-23T03:14:20;100172.31;;;10.01
70668;BMP280;58242;51.250;-1.118;2024-03-23T03:16:46;100179.84;;;9.99
70668;BMP280;58242;51.250;-1.118;2024-03-23T03:19:11;100180.19;;;9.98
70668;BMP280;58242;51.250;-1.118;2024-03-23T03:21:36;100178.31;;;9.98
70668;BMP280;58242;51.250;-1.118;2024-03-23T03:24:02;100175.94;;;9.97
70668;BMP280;58242;51.250;-1.118;2024-03-23T03:26:28;100182.38;;;9.96
70668;BMP280;58242;51.250;-1.118;2024-03-23T03:28:53;100179.25;;;9.94
70668;BMP280;58242;51.250;-1.118;2024-03-23T03:31:18;100175.78;;;9.93
70668;BMP280;58242;51.250;-1.118;2024-03-23T03:33:44;100169.97;;;9.91
70668;BMP280;58242;51.250;-1.118;2024-03-23T03:36:10;100173.75;;;9.91
70668;BMP280;58242;51.250;-1.118;2024-03-23T03:38:35;100171.41;;;9.89
70668;BMP280;58242;51.250;-1.118;2024-03-23T03:41:01;100167.16;;;9.88
70668;BMP280;58242;51.250;-1.118;2024-03-23T03:43:27;100176.59;;;9.86
70668;BMP280;58242;51.250;-1.118;2024-03-23T03:45:53;100160.06;;;9.84
70668;BMP280;58242;51.250;-1.118;2024-03-23T03:48:18;100173.75;;;9.82
70668;BMP280;58242;51.250;-1.118;2024-03-23T03:50:44;100169.81;;;9.80
70668;BMP280;58242;51.250;-1.118;2024-03-23T03:53:09;100168.28;;;9.79
70668;BMP280;58242;51.250;-1.118;2024-03-23T03:55:34;100170.94;;;9.79
70668;BMP280;58242;51.250;-1.118;2024-03-23T03:58:00;100173.91;;;9.77
70668;BMP280;58242;51.250;-1.118;2024-03-23T04:00:25;100172.03;;;9.78
70668;BMP280;58242;51.250;-1.118;2024-03-23T04:02:50;100173.13;;;9.77
70668;BMP280;58242;51.250;-1.118;2024-03-23T04:05:16;100172.34;;;9.76
70668;BMP280;58242;51.250;-1.118;2024-03-23T04:07:42;100171.59;;;9.76
70668;BMP280;58242;51.250;-1.118;2024-03-23T04:10:07;100179.59;;;9.76
70668;BMP280;58242;51.250;-1.118;2024-03-23T04:12:34;100166.50;;;9.74
70668;BMP280;58242;51.250;-1.118;2024-03-23T04:14:59;100168.41;;;9.74
70668;BMP280;58242;51.250;-1.118;2024-03-23T04:17:25;100172.94;;;9.73
70668;BMP280;58242;51.250;-1.118;2024-03-23T04:19:51;100171.06;;;9.74
70668;BMP280;58242;51.250;-1.118;2024-03-23T04:22:17;100167.94;;;9.72
70668;BMP280;58242;51.250;-1.118;2024-03-23T04:24:43;100162.59;;;9.72
70668;BMP280;58242;51.250;-1.118;2024-03-23T04:27:08;100161.03;;;9.71
70668;BMP280;58242;51.250;-1.118;2024-03-23T04:29:33;100163.22;;;9.69
70668;BMP280;58242;51.250;-1.118;2024-03-23T04:31:59;100162.91;;;9.71
70668;BMP280;58242;51.250;-1.118;2024-03-23T04:34:24;100159.44;;;9.70
70668;BMP280;58242;51.250;-1.118;2024-03-23T04:36:50;100165.88;;;9.69
70668;BMP280;58242;51.250;-1.118;2024-03-23T04:39:15;100163.22;;;9.69
70668;BMP280;58242;51.250;-1.118;2024-03-23T04:41:40;100168.53;;;9.69
70668;BMP280;58242;51.250;-1.118;2024-03-23T04:44:06;100155.19;;;9.69
70668;BMP280;58242;51.250;-1.118;2024-03-23T04:46:31;100153.66;;;9.68
70668;BMP280;58242;51.250;-1.118;2024-03-23T04:48:56;100158.19;;;9.68
70668;BMP280;58242;51.250;-1.118;2024-03-23T04:51:23;100159.28;;;9.67
70668;BMP280;58242;51.250;-1.118;2024-03-23T04:53:48;100163.06;;;9.66
70668;BMP280;58242;51.250;-1.118;2024-03-23T04:56:14;100158.06;;;9.64
70668;BMP280;58242;51.250;-1.118;2024-03-23T04:58:40;100156.94;;;9.65
70668;BMP280;58242;51.250;-1.118;2024-03-23T05:01:05;100150.34;;;9.63
70668;BMP280;58242;51.250;-1.118;2024-03-23T05:03:31;100153.00;;;9.63
70668;BMP280;58242;51.250;-1.118;2024-03-23T05:05:56;100148.75;;;9.62
70668;BMP280;58242;51.250;-1.118;2024-03-23T05:08:21;100146.44;;;9.60
70668;BMP280;58242;51.250;-1.118;2024-03-23T05:10:46;100141.41;;;9.59
70668;BMP280;58242;51.250;-1.118;2024-03-23T05:13:12;100139.03;;;9.57
70668;BMP280;58242;51.250;-1.118;2024-03-23T05:15:37;100134.81;;;9.57
70668;BMP280;58242;51.250;-1.118;2024-03-23T05:18:04;100147.38;;;9.56
70668;BMP280;58242;51.250;-1.118;2024-03-23T05:20:30;100141.25;;;9.56
70668;BMP280;58242;51.250;-1.118;2024-03-23T05:22:56;100139.66;;;9.55
70668;BMP280;58242;51.250;-1.118;2024-03-23T05:25:21;100134.66;;;9.53
70668;BMP280;58242;51.250;-1.118;2024-03-23T05:27:46;100131.22;;;9.53
70668;BMP280;58242;51.250;-1.118;2024-03-23T05:30:12;100137.63;;;9.52
70668;BMP280;58242;51.250;-1.118;2024-03-23T05:32:37;100120.38;;;9.49
70668;BMP280;58242;51.250;-1.118;2024-03-23T05:35:06;100123.34;;;9.48
70668;BMP280;58242;51.250;-1.118;2024-03-23T05:37:32;100124.78;;;9.45
70668;BMP280;58242;51.250;-1.118;2024-03-23T05:39:59;100127.75;;;9.44
70668;BMP280;58242;51.250;-1.118;2024-03-23T05:42:24;100119.28;;;9.42
70668;BMP280;58242;51.250;-1.118;2024-03-23T05:44:50;100115.84;;;9.41
70668;BMP280;58242;51.250;-1.118;2024-03-23T05:47:15;100122.25;;;9.40
70668;BMP280;58242;51.250;-1.118;2024-03-23T05:49:42;100119.88;;;9.39
70668;BMP280;58242;51.250;-1.118;2024-03-23T05:52:08;100125.22;;;9.39
70668;BMP280;58242;51.250;-1.118;2024-03-23T05:54:33;100113.00;;;9.38
70668;BMP280;58242;51.250;-1.118;2024-03-23T05:56:59;100128.53;;;9.36
70668;BMP280;58242;51.250;-1.118;2024-03-23T05:59:24;100116.28;;;9.35
70668;BMP280;58242;51.250;-1.118;2024-03-23T06:01:50;100113.16;;;9.33
70668;BMP280;58242;51.250;-1.118;2024-03-23T06:04:15;100112.38;;;9.33
70668;BMP280;58242;51.250;-1.118;2024-03-23T06:06:41;100125.41;;;9.34
70668;BMP280;58242;51.250;-1.118;2024-03-23T06:09:06;100121.94;;;9.34
70668;BMP280;58242;51.250;-1.118;2024-03-23T06:11:31;100112.06;;;9.34
70668;BMP280;58242;51.250;-1.118;2024-03-23T06:13:56;100119.75;;;9.36
70668;BMP280;58242;51.250;-1.118;2024-03-23T06:16:22;100112.53;;;9.36
70668;BMP280;58242;51.250;-1.118;2024-03-23T06:18:51;100120.22;;;9.38
70668;BMP280;58242;51.250;-1.118;2024-03-23T06:21:16;100119.88;;;9.39
70668;BMP280;58242;51.250;-1.118;2024-03-23T06:23:42;100114.72;;;9.42
70668;BMP280;58242;51.250;-1.118;2024-03-23T06:26:08;100115.97;;;9.45
70668;BMP280;58242;51.250;-1.118;2024-03-23T06:28:34;100116.13;;;9.48
70668;BMP280;58242;51.250;-1.118;2024-03-23T06:30:59;100114.72;;;9.51
70668;BMP280;58242;51.250;-1.118;2024-03-23T06:33:24;100119.41;;;9.54
70668;BMP280;58242;51.250;-1.118;2024-03-23T06:35:52;100122.25;;;9.57
70668;BMP280;58242;51.250;-1.118;2024-03-23T06:38:18;100119.25;;;9.58
70668;BMP280;58242;51.250;-1.118;2024-03-23T06:40:43;100121.00;;;9.63
70668;BMP280;58242;51.250;-1.118;2024-03-23T06:43:13;100116.88;;;9.65
70668;BMP280;58242;51.250;-1.118;2024-03-23T06:45:38;100107.94;;;9.70
70668;BMP280;58242;51.250;-1.118;2024-03-23T06:48:04;100107.00;;;9.74
70668;BMP280;58242;51.250;-1.118;2024-03-23T06:50:33;100105.59;;;9.76
70668;BMP280;58242;51.250;-1.118;2024-03-23T06:52:58;100103.88;;;9.80
70668;BMP280;58242;51.250;-1.118;2024-03-23T06:55:23;100105.28;;;9.86
70668;BMP280;58242;51.250;-1.118;2024-03-23T06:57:50;100108.25;;;9.93
70668;BMP280;58242;51.250;-1.118;2024-03-23T07:00:15;100100.88;;;9.98
70668;BMP280;58242;51.250;-1.118;2024-03-23T07:02:41;100100.50;;;10.08
70668;BMP280;58242;51.250;-1.118;2024-03-23T07:05:06;100106.75;;;10.20
70668;BMP280;58242;51.250;-1.118;2024-03-23T07:07:32;100105.63;;;10.29
70668;BMP280;58242;51.250;-1.118;2024-03-23T07:09:57;100107.75;;;10.44
70668;BMP280;58242;51.250;-1.118;2024-03-23T07:12:23;100106.09;;;10.59
70668;BMP280;58242;51.250;-1.118;2024-03-23T07:14:48;100102.97;;;10.86
70668;BMP280;58242;51.250;-1.118;2024-03-23T07:17:13;100095.53;;;11.19
70668;BMP280;58242;51.250;-1.118;2024-03-23T07:19:38;100104.00;;;11.61
70668;BMP280;58242;51.250;-1.118;2024-03-23T07:22:04;100086.50;;;12.07
70668;BMP280;58242;51.250;-1.118;2024-03-23T07:24:29;100086.56;;;12.53
70668;BMP280;58242;51.250;-1.118;2024-03-23T07:26:55;100094.16;;;12.98
70668;BMP280;58242;51.250;-1.118;2024-03-23T07:29:23;100077.53;;;13.31
70668;BMP280;58242;51.250;-1.118;2024-03-23T07:31:48;100078.66;;;13.57
70668;BMP280;58242;51.250;-1.118;2024-03-23T07:34:13;100075.56;;;13.82
70668;BMP280;58242;51.250;-1.118;2024-03-23T07:36:39;100074.56;;;14.01
70668;BMP280;58242;51.250;-1.118;2024-03-23T07:39:04;100064.78;;;14.23
70668;BMP280;58242;51.250;-1.118;2024-03-23T07:41:29;100053.78;;;14.43
70668;BMP280;58242;51.250;-1.118;2024-03-23T07:43:56;100056.94;;;14.64
70668;BMP280;58242;51.250;-1.118;2024-03-23T07:46:21;100058.75;;;14.90
70668;BMP280;58242;51.250;-1.118;2024-03-23T07:48:46;100060.94;;;15.18
70668;BMP280;58242;51.250;-1.118;2024-03-23T07:51:21;100064.78;;;15.36
70668;BMP280;58242;51.250;-1.118;2024-03-23T07:53:46;100057.47;;;15.36
70668;BMP280;58242;51.250;-1.118;2024-03-23T07:56:13;100057.97;;;15.41
70668;BMP280;58242;51.250;-1.118;2024-03-23T07:58:40;100062.47;;;15.53
70668;BMP280;58242;51.250;-1.118;2024-03-23T08:01:08;100055.09;;;15.72
70668;BMP280;58242;51.250;-1.118;2024-03-23T08:03:34;100051.06;;;15.99
70668;BMP280;58242;51.250;-1.118;2024-03-23T08:06:10;100043.88;;;16.28
70668;BMP280;58242;51.250;-1.118;2024-03-23T08:08:35;100045.66;;;16.65
70668;BMP280;58242;51.250;-1.118;2024-03-23T08:11:01;100040.13;;;17.09
70668;BMP280;58242;51.250;-1.118;2024-03-23T08:13:27;100050.09;;;17.62
70668;BMP280;58242;51.250;-1.118;2024-03-23T08:15:56;100045.22;;;18.10
70668;BMP280;58242;51.250;-1.118;2024-03-23T08:18:21;100049.53;;;18.56
70668;BMP280;58242;51.250;-1.118;2024-03-23T08:20:47;100058.81;;;19.08
70668;BMP280;58242;51.250;-1.118;2024-03-23T08:23:12;100044.72;;;19.48
70668;BMP280;58242;51.250;-1.118;2024-03-23T08:25:37;100051.41;;;19.71
70668;BMP280;58242;51.250;-1.118;2024-03-23T08:28:03;100036.38;;;19.97
70668;BMP280;58242;51.250;-1.118;2024-03-23T08:30:28;100035.22;;;20.25
70668;BMP280;58242;51.250;-1.118;2024-03-23T08:32:54;100036.03;;;20.63
70668;BMP280;58242;51.250;-1.118;2024-03-23T08:35:19;100032.13;;;21.02
70668;BMP280;58242;51.250;-1.118;2024-03-23T08:37:45;100023.53;;;21.24
70668;BMP280;58242;51.250;-1.118;2024-03-23T08:40:10;100027.69;;;21.59
70668;BMP280;58242;51.250;-1.118;2024-03-23T08:42:36;100029.47;;;21.92
70668;BMP280;58242;51.250;-1.118;2024-03-23T08:45:02;100018.66;;;22.31
70668;BMP280;58242;51.250;-1.118;2024-03-23T08:47:27;100016.13;;;22.61
70668;BMP280;58242;51.250;-1.118;2024-03-23T08:49:52;100008.06;;;22.90
70668;BMP280;58242;51.250;-1.118;2024-03-23T08:52:18;100003.13;;;23.14
70668;BMP280;58242;51.250;-1.118;2024-03-23T08:54:43;100007.22;;;23.32
70668;BMP280;58242;51.250;-1.118;2024-03-23T08:57:09;100006.31;;;23.42
70668;BMP280;58242;51.250;-1.118;2024-03-23T08:59:34;100003.56;;;23.71
70668;BMP280;58242;51.250;-1.118;2024-03-23T09:01:59;99996.53;;;24.02
70668;BMP280;58242;51.250;-1.118;2024-03-23T09:04:25;99977.81;;;24.01
70668;BMP280;58242;51.250;-1.118;2024-03-23T09:06:50;99987.88;;;24.07
70668;BMP280;58242;51.250;-1.118;2024-03-23T09:09:16;99984.91;;;24.21
70668;BMP280;58242;51.250;-1.118;2024-03-23T09:11:42;99969.03;;;24.38
70668;BMP280;58242;51.250;-1.118;2024-03-23T09:14:07;99974.66;;;24.51
70668;BMP280;58242;51.250;-1.118;2024-03-23T09:16:34;99974.94;;;24.59
70668;BMP280;58242;51.250;-1.118;2024-03-23T09:18:59;99968.91;;;24.90
70668;BMP280;58242;51.250;-1.118;2024-03-23T09:21:24;99970.78;;;24.93
70668;BMP280;58242;51.250;-1.118;2024-03-23T09:23:50;99967.03;;;25.06
70668;BMP280;58242;51.250;-1.118;2024-03-23T09:26:15;99955.88;;;25.35
70668;BMP280;58242;51.250;-1.118;2024-03-23T09:28:40;99956.56;;;25.58
70668;BMP280;58242;51.250;-1.118;2024-03-23T09:31:08;99953.31;;;25.97
70668;BMP280;58242;51.250;-1.118;2024-03-23T09:33:34;99946.47;;;26.36
70668;BMP280;58242;51.250;-1.118;2024-03-23T09:36:06;99958.19;;;26.83
70668;BMP280;58242;51.250;-1.118;2024-03-23T09:38:31;99939.50;;;27.06
70668;BMP280;58242;51.250;-1.118;2024-03-23T09:40:57;99949.59;;;27.25
70668;BMP280;58242;51.250;-1.118;2024-03-23T09:43:23;99937.19;;;27.45
70668;BMP280;58242;51.250;-1.118;2024-03-23T09:45:49;99948.47;;;27.62
70668;BMP280;58242;51.250;-1.118;2024-03-23T09:48:15;99936.72;;;27.74
70668;BMP280;58242;51.250;-1.118;2024-03-23T09:50:41;99938.59;;;27.77
70668;BMP280;58242;51.250;-1.118;2024-03-23T09:53:08;99935.75;;;27.92
70668;BMP280;58242;51.250;-1.118;2024-03-23T09:55:34;99928.03;;;28.12
70668;BMP280;58242;51.250;-1.118;2024-03-23T09:58:02;99904.38;;;28.14
70668;BMP280;58242;51.250;-1.118;2024-03-23T10:00:28;99921.56;;;28.18
70668;BMP280;58242;51.250;-1.118;2024-03-23T10:02:56;99920.53;;;28.36
70668;BMP280;58242;51.250;-1.118;2024-03-23T10:05:28;99923.00;;;28.55
70668;BMP280;58242;51.250;-1.118;2024-03-23T10:07:53;99916.47;;;28.74
70668;BMP280;58242;51.250;-1.118;2024-03-23T10:10:19;99918.16;;;28.92
70668;BMP280;58242;51.250;-1.118;2024-03-23T10:12:47;99915.47;;;29.01
70668;BMP280;58242;51.250;-1.118;2024-03-23T10:15:21;99913.47;;;29.22
70668;BMP280;58242;51.250;-1.118;2024-03-23T10:17:47;99909.78;;;29.37
70668;BMP280;58242;51.250;-1.118;2024-03-23T10:20:13;99931.03;;;29.37
70668;BMP280;58242;51.250;-1.118;2024-03-23T10:22:43;99907.66;;;29.41
70668;BMP280;58242;51.250;-1.118;2024-03-23T10:25:10;99908.06;;;29.61
70668;BMP280;58242;51.250;-1.118;2024-03-23T10:27:36;99904.22;;;29.79
70668;BMP280;58242;51.250;-1.118;2024-03-23T10:30:12;99902.91;;;30.01
70668;BMP280;58242;51.250;-1.118;2024-03-23T10:32:38;99892.06;;;30.06
70668;BMP280;58242;51.250;-1.118;2024-03-23T10:35:16;99880.69;;;30.04
70668;BMP280;58242;51.250;-1.118;2024-03-23T10:37:44;99886.22;;;30.04
70668;BMP280;58242;51.250;-1.118;2024-03-23T10:40:11;99887.19;;;30.28
70668;BMP280;58242;51.250;-1.118;2024-03-23T10:42:38;99879.44;;;30.53
70668;BMP280;58242;51.250;-1.118;2024-03-23T10:45:04;99879.22;;;30.30
70668;BMP280;58242;51.250;-1.118;2024-03-23T10:47:31;99877.66;;;29.73
70668;BMP280;58242;51.250;-1.118;2024-03-23T10:49:57;99877.19;;;29.36
70668;BMP280;58242;51.250;-1.118;2024-03-23T10:52:23;99884.16;;;29.07
70668;BMP280;58242;51.250;-1.118;2024-03-23T10:54:51;99872.53;;;28.83
70668;BMP280;58242;51.250;-1.118;2024-03-23T10:57:23;99865.97;;;28.35
70668;BMP280;58242;51.250;-1.118;2024-03-23T10:59:51;99869.69;;;27.83
70668;BMP280;58242;51.250;-1.118;2024-03-23T11:02:21;99856.38;;;27.45
70668;BMP280;58242;51.250;-1.118;2024-03-23T11:04:47;99857.19;;;27.06
70668;BMP280;58242;51.250;-1.118;2024-03-23T11:07:32;99850.94;;;26.50
70668;BMP280;58242;51.250;-1.118;2024-03-23T11:09:58;99847.84;;;26.05
70668;BMP280;58242;51.250;-1.118;2024-03-23T11:14:50;99849.81;;;24.67
70668;BMP280;58242;51.250;-1.118;2024-03-23T11:17:20;99851.97;;;23.92
70668;BMP280;58242;51.250;-1.118;2024-03-23T11:19:53;99848.69;;;23.27
70668;BMP280;58242;51.250;-1.118;2024-03-23T11:25:21;99844.53;;;22.57
70668;BMP280;58242;51.250;-1.118;2024-03-23T11:27:52;99856.81;;;22.32
70668;BMP280;58242;51.250;-1.118;2024-03-23T11:30:22;99849.78;;;21.95
70668;BMP280;58242;51.250;-1.118;2024-03-23T11:32:49;99858.69;;;21.50
70668;BMP280;58242;51.250;-1.118;2024-03-23T11:35:34;99873.75;;;20.94
70668;BMP280;58242;51.250;-1.118;2024-03-23T11:40:42;99887.91;;;19.81
70668;BMP280;58242;51.250;-1.118;2024-03-23T11:43:09;99889.75;;;19.33
70668;BMP280;58242;51.250;-1.118;2024-03-23T11:45:48;99881.44;;;18.85
70668;BMP280;58242;51.250;-1.118;2024-03-23T11:48:18;99875.81;;;18.51
70668;BMP280;58242;51.250;-1.118;2024-03-23T11:50:45;99871.09;;;18.28
70668;BMP280;58242;51.250;-1.118;2024-03-23T11:56:01;99839.66;;;18.83
70668;BMP280;58242;51.250;-1.118;2024-03-23T11:58:26;99832.50;;;19.85
70668;BMP280;58242;51.250;-1.118;2024-03-23T12:00:59;99818.78;;;20.56
70668;BMP280;58242;51.250;-1.118;2024-03-23T12:03:26;99812.34;;;21.07
70668;BMP280;58242;51.250;-1.118;2024-03-23T12:05:53;99794.53;;;21.56
70668;BMP280;58242;51.250;-1.118;2024-03-23T12:08:19;99788.72;;;22.32
70668;BMP280;58242;51.250;-1.118;2024-03-23T12:10:51;99782.41;;;23.00
70668;BMP280;58242;51.250;-1.118;2024-03-23T12:13:18;99781.72;;;23.48
70668;BMP280;58242;51.250;-1.118;2024-03-23T12:15:49;99790.38;;;23.43
70668;BMP280;58242;51.250;-1.118;2024-03-23T12:18:14;99792.78;;;23.12
70668;BMP280;58242;51.250;-1.118;2024-03-23T12:20:40;99790.13;;;22.80
70668;BMP280;58242;51.250;-1.118;2024-03-23T12:23:10;99790.94;;;22.44
70668;BMP280;58242;51.250;-1.118;2024-03-23T12:25:37;99807.75;;;22.00
70668;BMP280;58242;51.250;-1.118;2024-03-23T12:28:03;99787.97;;;21.50
70668;BMP280;58242;51.250;-1.118;2024-03-23T12:30:28;99800.72;;;20.96
70668;BMP280;58242;51.250;-1.118;2024-03-23T12:32:53;99810.66;;;20.43
70668;BMP280;58242;51.250;-1.118;2024-03-23T12:35:19;99830.56;;;19.86
70668;BMP280;58242;51.250;-1.118;2024-03-23T12:37:44;99808.03;;;19.31
70668;BMP280;58242;51.250;-1.118;2024-03-23T12:40:10;99817.22;;;18.82
70668;BMP280;58242;51.250;-1.118;2024-03-23T12:42:35;99824.00;;;18.46
70668;BMP280;58242;51.250;-1.118;2024-03-23T12:45:01;99822.31;;;18.21
70668;BMP280;58242;51.250;-1.118;2024-03-23T12:47:26;99814.50;;;18.06
70668;BMP280;58242;51.250;-1.118;2024-03-23T12:49:52;99804.44;;;18.06
70668;BMP280;58242;51.250;-1.118;2024-03-23T12:52:17;99813.88;;;18.32
70668;BMP280;58242;51.250;-1.118;2024-03-23T12:54:43;99796.31;;;18.76
70668;BMP280;58242;51.250;-1.118;2024-03-23T12:57:08;99803.78;;;19.33
70668;BMP280;58242;51.250;-1.118;2024-03-23T12:59:33;99794.84;;;20.11
70668;BMP280;58242;51.250;-1.118;2024-03-23T13:02:00;99790.97;;;21.09
70668;BMP280;58242;51.250;-1.118;2024-03-23T13:04:26;99785.59;;;21.98
70668;BMP280;58242;51.250;-1.118;2024-03-23T13:06:51;99796.06;;;22.71
70668;BMP280;58242;51.250;-1.118;2024-03-23T13:09:16;99793.84;;;23.21
70668;BMP280;58242;51.250;-1.118;2024-03-23T13:11:42;99779.94;;;23.38
70668;BMP280;58242;51.250;-1.118;2024-03-23T13:14:07;99767.59;;;23.31
70668;BMP280;58242;51.250;-1.118;2024-03-23T13:16:33;99767.44;;;23.12
70668;BMP280;58242;51.250;-1.118;2024-03-23T13:18:58;99766.63;;;22.89
70668;BMP280;58242;51.250;-1.118;2024-03-23T13:21:24;99759.34;;;22.50
70668;BMP280;58242;51.250;-1.118;2024-03-23T13:23:50;99764.81;;;22.14
70668;BMP280;58242;51.250;-1.118;2024-03-23T13:26:16;99764.38;;;21.79
70668;BMP280;58242;51.250;-1.118;2024-03-23T13:28:41;99798.91;;;21.43
70668;BMP280;58242;51.250;-1.118;2024-03-23T13:31:07;99859.69;;;21.06
70668;BMP280;58242;51.250;-1.118;2024-03-23T13:33:33;99867.28;;;20.51
70668;BMP280;58242;51.250;-1.118;2024-03-23T13:35:59;99868.91;;;19.87
70668;BMP280;58242;51.250;-1.118;2024-03-23T13:38:25;99845.97;;;19.24
70668;BMP280;58242;51.250;-1.118;2024-03-23T13:40:57;99828.78;;;18.69
70668;BMP280;58242;51.250;-1.118;2024-03-23T13:43:24;99819.25;;;18.22
70668;BMP280;58242;51.250;-1.118;2024-03-23T13:45:53;99819.78;;;17.89
70668;BMP280;58242;51.250;-1.118;2024-03-23T13:48:20;99806.03;;;17.62
70668;BMP280;58242;51.250;-1.118;2024-03-23T13:50:46;99797.34;;;17.36
70668;BMP280;58242;51.250;-1.118;2024-03-23T13:53:14;99778.22;;;17.15
70668;BMP280;58242;51.250;-1.118;2024-03-23T13:55:46;99771.13;;;17.01
70668;BMP280;58242;51.250;-1.118;2024-03-23T13:58:12;99777.22;;;16.91
70668;BMP280;58242;51.250;-1.118;2024-03-23T14:00:37;99782.19;;;16.89
70668;BMP280;58242;51.250;-1.118;2024-03-23T14:03:03;99800.75;;;16.91
70668;BMP280;58242;51.250;-1.118;2024-03-23T14:05:28;99785.63;;;16.86
70668;BMP280;58242;51.250;-1.118;2024-03-23T14:07:53;99775.09;;;16.78
70668;BMP280;58242;51.250;-1.118;2024-03-23T14:10:19;99773.13;;;16.72
70668;BMP280;58242;51.250;-1.118;2024-03-23T14:12:44;99755.00;;;16.72
70668;BMP280;58242;51.250;-1.118;2024-03-23T14:15:09;99750.41;;;16.76
70668;BMP280;58242;51.250;-1.118;2024-03-23T14:17:35;99743.13;;;16.80
70668;BMP280;58242;51.250;-1.118;2024-03-23T14:20:00;99745.91;;;17.26
70668;BMP280;58242;51.250;-1.118;2024-03-23T14:22:27;99740.00;;;18.22
70668;BMP280;58242;51.250;-1.118;2024-03-23T14:24:52;99731.00;;;19.32
70668;BMP280;58242;51.250;-1.118;2024-03-23T14:27:18;99726.91;;;20.41
70668;BMP280;58242;51.250;-1.118;2024-03-23T14:29:45;99723.50;;;21.47
70668;BMP280;58242;51.250;-1.118;2024-03-23T14:32:12;99728.38;;;22.37
70668;BMP280;58242;51.250;-1.118;2024-03-23T14:34:37;99725.66;;;23.18
70668;BMP280;58242;51.250;-1.118;2024-03-23T14:37:02;99720.16;;;23.47
70668;BMP280;58242;51.250;-1.118;2024-03-23T14:39:28;99721.72;;;23.22
70668;BMP280;58242;51.250;-1.118;2024-03-23T14:41:55;99723.63;;;22.74
70668;BMP280;58242;51.250;-1.118;2024-03-23T14:44:21;99744.59;;;22.15
70668;BMP280;58242;51.250;-1.118;2024-03-23T14:46:47;99738.63;;;21.51
70668;BMP280;58242;51.250;-1.118;2024-03-23T14:49:14;99729.28;;;20.99